Time;durP1;ratioP1;P1;durP2;ratioP2;P2;SDS_P1;SDS_P2;PMS_P1;PMS_P2;Temp;Humidity;BMP_temperature;BMP_pressure;BME280_temperature;BME280_humidity;BME280_pressure;Samples;Min_cycle;Max_cycle;Signal;HPM_P1;HPM_P2
2021/05/11 00:02:10;;;;;;;12.40;3.67;;;12.80;88.40;;;;;;5034584;28;20343;-76
2021/05/11 00:04:37;;;;;;;12.98;3.63;;;12.80;87.70;;;;;;5034286;28;20053;-76
2021/05/11 00:07:04;;;;;;;12.68;3.30;;;12.80;87.60;;;;;;5034280;28;20052;-76
2021/05/11 00:09:30;;;;;;;14.43;3.35;;;12.90;87.30;;;;;;5033358;28;20049;-76
2021/05/11 00:11:56;;;;;;;16.83;3.78;;;12.70;86.30;;;;;;5033919;28;20042;-74
2021/05/11 00:14:23;;;;;;;13.98;2.78;;;12.80;86.30;;;;;;5034597;28;20049;-75
2021/05/11 00:16:49;;;;;;;11.85;3.33;;;12.90;85.70;;;;;;5034514;28;20049;-75
2021/05/11 00:19:16;;;;;;;13.10;2.78;;;12.90;85.20;;;;;;5034353;28;20160;-75
2021/05/11 00:21:43;;;;;;;11.13;2.85;;;12.90;85.10;;;;;;5033713;28;20045;-75
2021/05/11 00:24:09;;;;;;;13.57;3.17;;;12.90;85.10;;;;;;5033994;28;20049;-76
2021/05/11 00:26:38;;;;;;;12.65;2.72;;;13.00;84.80;;;;;;5034158;28;20054;-76
2021/05/11 00:29:07;;;;;;;13.23;2.92;;;13.00;84.90;;;;;;5034377;28;20065;-76
2021/05/11 00:31:33;;;;;;;11.05;2.63;;;13.00;84.80;;;;;;5034084;28;20335;-75
2021/05/11 00:34:00;;;;;;;12.05;2.70;;;13.00;84.50;;;;;;5033966;28;20064;-75
2021/05/11 00:36:26;;;;;;;11.80;2.60;;;13.00;84.50;;;;;;5033911;28;20057;-76
2021/05/11 00:38:53;;;;;;;14.07;2.53;;;13.00;84.50;;;;;;5032652;28;20053;-75
2021/05/11 00:41:19;;;;;;;9.95;2.58;;;13.10;84.40;;;;;;5033634;28;20048;-75
2021/05/11 00:43:47;;;;;;;10.20;2.58;;;13.10;84.00;;;;;;5036857;28;20343;-76
2021/05/11 00:46:14;;;;;;;11.20;3.03;;;13.10;84.00;;;;;;5037867;28;20045;-76
2021/05/11 00:48:41;;;;;;;13.48;3.00;;;13.10;83.60;;;;;;5038096;28;20339;-75
2021/05/11 00:51:08;;;;;;;10.45;2.35;;;13.10;83.30;;;;;;5037604;28;20049;-75
2021/05/11 00:53:35;;;;;;;17.02;2.88;;;13.10;83.00;;;;;;5037642;28;20041;-75
2021/05/11 00:56:02;;;;;;;13.45;2.85;;;13.10;83.10;;;;;;5037663;28;20045;-75
2021/05/11 00:58:28;;;;;;;12.57;2.35;;;13.10;83.20;;;;;;5037474;28;20049;-76
2021/05/11 01:00:55;;;;;;;12.20;2.65;;;13.10;83.20;;;;;;5037655;28;20041;-76
2021/05/11 01:03:21;;;;;;;13.25;2.92;;;13.10;83.40;;;;;;5037303;28;20063;-76
2021/05/11 01:05:47;;;;;;;13.27;2.80;;;13.10;83.70;;;;;;5037685;28;20045;-76
2021/05/11 01:08:14;;;;;;;15.48;2.90;;;13.10;83.70;;;;;;5037685;28;20435;-74
2021/05/11 01:10:41;;;;;;;11.73;2.53;;;13.10;84.20;;;;;;5037560;28;20428;-75
2021/05/11 01:13:07;;;;;;;13.38;2.80;;;13.20;84.30;;;;;;5042417;28;20048;-76
2021/05/11 01:15:36;;;;;;;12.20;3.00;;;13.20;84.20;;;;;;5037096;28;20428;-75
2021/05/11 01:18:09;;;;;;;11.70;3.13;;;13.40;84.70;;;;;;5037680;28;20049;-75
2021/05/11 01:20:41;;;;;;;19.48;3.65;;;13.20;84.70;;;;;;5037007;28;20064;-75
2021/05/11 01:25:59;;;;;;;13.32;3.75;;;13.10;85.20;;;;;;5037350;28;20466;-75
2021/05/11 01:47:52;;;;;;;16.17;4.57;;;13.10;86.40;;;;;;4937919;29;20043;-76
2021/05/11 02:22:47;;;;;;;18.17;8.65;;;13.00;89.70;;;;;;4936727;29;20052;-76
2021/05/11 02:25:15;;;;;;;20.88;9.27;;;13.00;90.00;;;;;;4937333;29;20100;-76
2021/05/11 02:27:43;;;;;;;13.23;8.02;;;13.20;91.30;;;;;;4937143;29;20103;-76
2021/05/11 02:30:10;;;;;;;21.83;8.05;;;13.00;90.80;;;;;;4936456;29;20051;-77
2021/05/11 02:32:41;;;;;;;17.30;9.15;;;13.00;91.00;;;;;;4967644;28;20053;-76
2021/05/11 02:35:12;;;;;;;15.55;8.23;;;13.00;91.20;;;;;;5036819;28;20057;-77
2021/05/11 02:37:38;;;;;;;18.50;7.10;;;12.90;91.10;;;;;;5035933;28;20053;-75
2021/05/11 02:40:08;;;;;;;10.95;4.45;;;12.90;91.00;;;;;;5036156;28;20045;-75
2021/05/11 02:42:35;;;;;;;14.45;3.83;;;12.90;90.90;;;;;;5035778;28;20049;-76
2021/05/11 02:45:03;;;;;;;9.27;4.20;;;12.70;90.70;;;;;;5035973;28;20041;-76
2021/05/11 02:47:29;;;;;;;10.85;4.03;;;12.80;90.50;;;;;;5036247;28;20435;-76
2021/05/11 02:49:55;;;;;;;17.02;4.15;;;12.80;90.50;;;;;;5036651;28;20049;-76
2021/05/11 02:52:21;;;;;;;9.38;4.10;;;12.70;90.40;;;;;;5036397;28;20045;-76
2021/05/11 02:54:47;;;;;;;15.85;4.40;;;12.70;90.30;;;;;;5036402;28;20049;-75
2021/05/11 02:57:14;;;;;;;14.38;4.57;;;12.70;90.30;;;;;;5036065;28;20431;-75
2021/05/11 02:59:40;;;;;;;18.90;6.63;;;12.80;90.00;;;;;;5035420;28;20045;-76
2021/05/11 03:02:08;;;;;;;15.73;4.63;;;12.70;90.20;;;;;;5035830;28;20420;-76
2021/05/11 03:04:34;;;;;;;12.43;4.65;;;12.70;90.00;;;;;;5035628;28;20076;-75
2021/05/11 03:07:01;;;;;;;11.00;4.22;;;12.70;90.00;;;;;;5035339;28;20041;-76
2021/05/11 03:09:27;;;;;;;15.93;5.53;;;12.70;90.00;;;;;;5035830;28;20443;-76
2021/05/11 03:11:55;;;;;;;13.30;5.10;;;12.70;90.40;;;;;;5035622;28;20041;-75
2021/05/11 03:14:22;;;;;;;13.63;5.22;;;12.70;90.20;;;;;;5034920;28;20053;-77
2021/05/11 03:16:51;;;;;;;22.55;7.95;;;12.60;89.90;;;;;;5035506;28;20052;-76
2021/05/11 03:19:17;;;;;;;14.35;7.78;;;12.60;90.30;;;;;;5035480;28;20049;-76
2021/05/11 03:21:43;;;;;;;20.63;9.02;;;12.60;90.70;;;;;;5034893;28;20053;-75
2021/05/11 03:24:11;;;;;;;17.88;8.65;;;12.60;91.00;;;;;;5034621;28;20053;-75
2021/05/11 03:26:37;;;;;;;12.45;7.80;;;12.60;91.30;;;;;;5035450;28;20041;-77
2021/05/11 03:29:04;;;;;;;13.55;8.20;;;12.70;91.40;;;;;;5034694;28;20128;-77
2021/05/11 03:31:33;;;;;;;15.45;7.75;;;12.60;91.40;;;;;;5034844;28;20053;-75
2021/05/11 03:34:00;;;;;;;16.13;9.80;;;12.60;91.30;;;;;;5035039;28;20072;-75
2021/05/11 03:36:26;;;;;;;15.95;8.73;;;12.70;91.30;;;;;;5034245;28;20049;-77
2021/05/11 03:38:53;;;;;;;19.75;11.55;;;12.60;91.40;;;;;;5035063;28;20042;-75
2021/05/11 03:41:24;;;;;;;17.05;9.45;;;12.60;91.90;;;;;;5034691;28;20053;-74
2021/05/11 03:44:10;;;;;;;19.92;11.50;;;12.60;92.10;;;;;;5034489;28;20045;-75
2021/05/11 03:46:37;;;;;;;15.88;9.65;;;12.60;92.30;;;;;;5034732;28;20060;-76
2021/05/11 03:49:06;;;;;;;18.50;10.10;;;12.60;92.20;;;;;;5034858;28;20056;-76
2021/05/11 03:51:33;;;;;;;20.85;13.05;;;12.60;92.10;;;;;;5033608;28;20103;-76
2021/05/11 03:54:00;;;;;;;14.95;11.23;;;12.60;92.30;;;;;;5034539;28;20053;-75
2021/05/11 03:56:27;;;;;;;17.33;12.07;;;12.60;92.30;;;;;;5034541;28;20331;-76
2021/05/11 03:58:54;;;;;;;15.77;11.00;;;12.70;92.20;;;;;;5034636;28;20469;-75
2021/05/11 04:01:20;;;;;;;16.15;11.73;;;12.70;92.30;;;;;;5034412;28;20060;-77
2021/05/11 04:03:47;;;;;;;18.42;12.82;;;12.80;92.40;;;;;;5034831;28;20041;-75
2021/05/11 04:06:13;;;;;;;16.50;12.27;;;12.80;92.70;;;;;;5033728;28;20050;-75
2021/05/11 04:16:23;;;;;;;14.13;10.57;;;12.90;92.50;;;;;;5034247;28;20045;-76
2021/05/11 04:18:50;;;;;;;13.57;9.88;;;12.90;92.60;;;;;;5033873;28;20428;-76
2021/05/11 04:21:17;;;;;;;14.85;12.05;;;12.90;92.30;;;;;;5033160;28;20060;-76
2021/05/11 04:23:44;;;;;;;13.60;10.15;;;12.90;92.60;;;;;;5034199;28;20048;-74
2021/05/11 04:26:14;;;;;;;13.30;10.93;;;13.00;92.60;;;;;;5034066;28;20072;-76
2021/05/11 04:28:41;;;;;;;12.50;10.88;;;12.90;92.50;;;;;;5034717;28;20045;-75
2021/05/11 04:31:08;;;;;;;17.05;9.93;;;13.00;92.60;;;;;;5033938;28;20057;-76
2021/05/11 04:33:35;;;;;;;16.88;11.43;;;13.00;92.60;;;;;;5033914;28;20053;-75
2021/05/11 04:36:01;;;;;;;12.15;8.90;;;13.00;92.50;;;;;;5033998;28;20057;-75
2021/05/11 04:38:27;;;;;;;13.40;11.05;;;13.00;92.30;;;;;;5033789;28;20467;-76
2021/05/11 04:40:54;;;;;;;11.80;9.25;;;13.00;92.60;;;;;;5033933;28;20452;-75
2021/05/11 04:43:25;;;;;;;11.57;8.57;;;13.00;92.50;;;;;;5034134;28;20053;-77
2021/05/11 04:46:04;;;;;;;12.85;9.82;;;13.00;92.20;;;;;;5034131;28;20041;-76
2021/05/11 04:48:30;;;;;;;13.05;11.20;;;13.10;92.10;;;;;;5034241;28;20053;-76
2021/05/11 04:50:59;;;;;;;14.95;10.57;;;13.00;92.30;;;;;;5034164;28;20045;-76
2021/05/11 04:53:26;;;;;;;12.38;9.63;;;13.10;92.60;;;;;;5034109;28;20064;-76
2021/05/11 04:55:52;;;;;;;12.75;9.95;;;13.10;92.50;;;;;;5033960;28;20045;-76
2021/05/11 04:58:18;;;;;;;15.60;12.57;;;13.20;92.30;;;;;;5034114;28;20053;-75
2021/05/11 05:00:45;;;;;;;14.55;12.45;;;13.10;92.80;;;;;;5034276;28;20335;-76
2021/05/11 05:03:15;;;;;;;18.77;11.20;;;13.20;93.00;;;;;;5033220;28;20049;-76
2021/05/11 05:05:43;;;;;;;15.00;12.60;;;13.20;92.90;;;;;;5034064;28;20041;-76
2021/05/11 05:08:14;;;;;;;11.85;9.48;;;13.30;93.00;;;;;;5033527;28;20061;-76
2021/05/11 05:10:42;;;;;;;18.35;11.43;;;13.30;92.80;;;;;;5033622;28;20049;-76
2021/05/11 05:13:08;;;;;;;11.35;8.90;;;13.30;92.90;;;;;;5015890;28;20061;-76
2021/05/11 05:15:34;;;;;;;17.38;11.48;;;13.90;92.90;;;;;;5033564;28;20050;-76
2021/05/11 05:18:00;;;;;;;17.45;12.38;;;13.70;92.90;;;;;;5033824;28;20045;-75
2021/05/11 05:20:27;;;;;;;14.90;11.82;;;13.40;93.10;;;;;;5033835;28;20046;-76
2021/05/11 05:22:53;;;;;;;10.88;9.00;;;13.60;93.10;;;;;;5033620;28;20053;-76
2021/05/11 05:25:23;;;;;;;16.38;12.65;;;13.70;92.80;;;;;;5033988;28;20041;-75
2021/05/11 05:28:00;;;;;;;10.60;9.52;;;13.40;92.80;;;;;;5033707;28;20045;-75
2021/05/11 05:30:29;;;;;;;13.68;11.15;;;13.80;92.90;;;;;;5037096;28;20613;-75
2021/05/11 05:33:02;;;;;;;13.52;12.13;;;13.50;93.30;;;;;;5037198;28;20345;-76
2021/05/11 05:35:31;;;;;;;;;;;13.80;92.90;;;;;;5037721;28;20411;-76
2021/05/11 05:37:58;;;;;;;16.25;12.55;;;13.50;92.80;;;;;;5036872;28;20311;-76
2021/05/11 05:40:25;;;;;;;13.65;11.45;;;13.50;93.00;;;;;;5036894;28;20064;-76
2021/05/11 05:42:52;;;;;;;14.75;10.93;;;13.50;92.80;;;;;;5036776;28;20049;-75
2021/05/11 05:45:20;;;;;;;14.68;10.95;;;13.50;92.80;;;;;;5037071;28;20061;-74
2021/05/11 05:47:52;;;;;;;17.35;11.88;;;13.60;92.60;;;;;;5037178;28;20309;-75
2021/05/11 05:50:26;;;;;;;13.05;11.32;;;13.60;92.70;;;;;;5037115;28;20060;-75
2021/05/11 05:53:05;;;;;;;19.17;12.65;;;14.30;93.90;;;;;;5036333;28;20420;-77
2021/05/11 05:55:32;;;;;;;12.48;10.25;;;;;;;;;;5037284;28;20044;-76
2021/05/11 05:57:58;;;;;;;14.25;11.00;;;13.70;92.30;;;;;;5037177;28;20329;-76
2021/05/11 06:00:25;;;;;;;15.60;10.93;;;13.70;92.40;;;;;;5035864;28;20064;-76
2021/05/11 06:03:33;;;;;;;13.07;10.93;;;13.70;92.50;;;;;;5021399;28;20357;-76
2021/05/11 06:06:09;;;;;;;13.65;9.85;;;13.70;92.40;;;;;;5036144;28;20046;-76
2021/05/11 06:08:38;;;;;;;12.02;8.90;;;13.80;92.40;;;;;;5034626;28;20054;-76
2021/05/11 06:11:17;;;;;;;10.27;9.10;;;13.80;92.30;;;;;;5035900;28;20053;-74
2021/05/11 06:19:01;;;;;;;13.40;10.07;;;13.90;92.70;;;;;;5036157;28;20049;-76
2021/05/11 06:21:28;;;;;;;9.80;7.90;;;14.00;92.70;;;;;;5036148;28;20351;-76
2021/05/11 06:23:54;;;;;;;10.73;7.15;;;14.10;92.80;;;;;;5035883;28;20056;-76
2021/05/11 06:26:21;;;;;;;10.57;6.97;;;14.00;92.90;;;;;;5036250;28;20053;-76
2021/05/11 06:28:48;;;;;;;8.82;6.72;;;14.00;92.70;;;;;;5039382;28;20068;-75
2021/05/11 06:31:15;;;;;;;7.80;5.95;;;14.10;92.70;;;;;;5036325;28;20053;-76
2021/05/11 06:33:43;;;;;;;5.68;5.10;;;14.10;92.50;;;;;;5035939;28;20046;-76
2021/05/11 06:36:10;;;;;;;7.88;5.93;;;14.10;92.20;;;;;;5035581;28;20072;-75
2021/05/11 06:38:39;;;;;;;8.30;5.32;;;14.10;92.30;;;;;;5035851;28;20045;-75
2021/05/11 06:41:06;;;;;;;7.82;4.20;;;14.40;92.30;;;;;;5035773;28;20343;-75
2021/05/11 06:43:34;;;;;;;5.50;3.83;;;14.20;92.00;;;;;;5035540;28;20045;-76
2021/05/11 06:49:26;;;;;;;5.50;3.95;;;14.20;92.00;;;;;;5035982;28;20077;-75
2021/05/11 06:54:38;;;;;;;5.00;2.97;;;14.20;91.90;;;;;;5036000;28;20040;-76
2021/05/11 06:57:08;;;;;;;5.45;3.10;;;14.20;91.90;;;;;;5035233;28;20053;-76
2021/05/11 06:59:34;;;;;;;6.97;2.17;;;14.20;91.80;;;;;;5034790;28;20068;-76
2021/05/11 07:02:02;;;;;;;2.88;1.98;;;14.20;91.60;;;;;;5034129;28;20442;-76
2021/05/11 07:04:28;;;;;;;10.10;2.67;;;14.20;91.60;;;;;;5033656;28;20112;-76
2021/05/11 07:06:56;;;;;;;4.13;1.70;;;14.30;91.60;;;;;;5034139;28;20045;-75
2021/05/11 07:10:15;;;;;;;8.00;2.15;;;14.50;91.40;;;;;;5034222;28;20398;-76
2021/05/11 07:14:35;;;;;;;4.82;1.88;;;14.30;91.20;;;;;;5034103;28;20057;-76
2021/05/11 07:17:01;;;;;;;2.38;1.40;;;14.30;91.20;;;;;;5034534;28;20068;-76
2021/05/11 07:19:28;;;;;;;6.75;1.85;;;14.40;91.30;;;;;;5034398;28;20420;-75
2021/05/11 07:21:54;;;;;;;3.40;1.52;;;14.40;91.30;;;;;;5034661;28;20053;-77
2021/05/11 07:24:26;;;;;;;5.03;1.70;;;14.60;91.30;;;;;;5033622;28;20045;-76
2021/05/11 07:29:48;;;;;;;4.72;1.65;;;14.50;91.20;;;;;;5034104;28;20060;-76
2021/05/11 07:32:14;;;;;;;4.38;1.85;;;14.70;91.20;;;;;;5032600;28;20056;-76
2021/05/11 07:34:43;;;;;;;7.18;1.63;;;14.70;91.00;;;;;;5033226;28;20041;-76
2021/05/11 07:37:11;;;;;;;3.88;1.58;;;14.70;90.90;;;;;;5033238;28;20053;-77
2021/05/11 07:39:39;;;;;;;4.95;1.92;;;14.70;90.70;;;;;;5033535;28;20034;-76
2021/05/11 07:42:06;;;;;;;2.95;1.27;;;14.70;90.70;;;;;;5033902;28;20049;-76
2021/05/11 07:44:35;;;;;;;4.13;1.65;;;14.80;90.60;;;;;;5033613;28;20054;-77
2021/05/11 07:49:55;;;;;;;4.57;2.10;;;14.90;90.60;;;;;;5033326;28;20053;-77
2021/05/11 08:16:42;;;;;;;5.60;2.78;;;15.40;90.30;;;;;;5030870;28;20359;-75
2021/05/11 08:19:38;;;;;;;5.80;3.30;;;15.50;90.10;;;;;;5033651;28;20052;-76
2021/05/11 08:27:41;;;;;;;9.05;3.88;;;15.60;90.10;;;;;;5033286;28;20050;-77
2021/05/11 08:30:08;;;;;;;6.38;4.50;;;15.70;90.10;;;;;;5033663;28;20052;-76
2021/05/11 08:32:34;;;;;;;7.05;4.82;;;15.70;90.10;;;;;;5032625;28;20061;-76
2021/05/11 08:35:01;;;;;;;5.85;4.72;;;15.70;90.00;;;;;;5033258;28;20080;-76
2021/05/11 08:37:27;;;;;;;5.85;4.68;;;15.80;90.00;;;;;;5033835;28;20045;-77
2021/05/11 08:39:53;;;;;;;7.20;3.88;;;15.80;89.70;;;;;;5033496;28;20042;-76
2021/05/11 08:42:19;;;;;;;5.82;4.00;;;16.00;89.70;;;;;;5034202;28;20049;-76
2021/05/11 08:44:46;;;;;;;7.63;4.25;;;16.00;89.40;;;;;;5034195;28;20046;-76
2021/05/11 08:47:17;;;;;;;5.70;4.80;;;16.00;89.00;;;;;;5034292;28;20060;-76
2021/05/11 08:49:43;;;;;;;6.45;4.45;;;15.90;88.90;;;;;;5033649;28;20057;-76
2021/05/11 08:52:33;;;;;;;6.75;4.25;;;15.90;88.40;;;;;;5034170;28;20428;-76
2021/05/11 09:08:58;;;;;;;8.27;4.45;;;16.50;86.90;;;;;;5037021;28;20041;-76
2021/05/11 09:15:05;;;;;;;6.18;4.20;;;16.90;86.50;;;;;;5037272;28;20042;-77
2021/05/11 09:25:25;;;;;;;4.25;2.38;;;17.30;84.60;;;;;;5036956;28;20046;-75
2021/05/11 10:36:25;;;;;;;1.65;0.70;;;19.50;73.80;;;;;;5036157;28;20045;-75
2021/05/11 10:48:27;;;;;;;2.72;1.25;;;19.00;74.80;;;;;;5035885;28;20045;-73
2021/05/11 10:50:58;;;;;;;2.35;0.98;;;18.90;75.30;;;;;;5035539;28;20084;-73
2021/05/11 10:53:41;;;;;;;3.08;1.23;;;19.10;75.30;;;;;;5034945;28;20052;-74
2021/05/11 10:56:37;;;;;;;2.73;1.50;;;19.10;73.80;;;;;;5035684;28;20037;-75
2021/05/11 11:01:57;;;;;;;2.45;1.30;;;19.00;75.60;;;;;;5035116;28;20649;-75
2021/05/11 11:04:32;;;;;;;2.15;1.20;;;18.70;76.10;;;;;;5035108;28;20041;-73
2021/05/11 11:07:01;;;;;;;2.08;1.10;;;18.50;76.70;;;;;;5034932;28;20045;-72
2021/05/11 11:09:35;;;;;;;1.50;0.90;;;18.30;76.90;;;;;;5035322;28;20037;-73
2021/05/11 11:12:05;;;;;;;1.83;0.80;;;18.20;76.90;;;;;;5035002;28;20347;-74
2021/05/11 11:14:42;;;;;;;1.95;0.60;;;18.30;77.10;;;;;;5034925;28;20053;-75
2021/05/11 11:17:11;;;;;;;2.05;1.00;;;18.70;77.80;;;;;;5035435;28;20045;-75
2021/05/11 11:19:38;;;;;;;3.83;1.40;;;19.50;76.70;;;;;;5034647;28;20064;-75
2021/05/11 11:25:01;;;;;;;2.22;1.00;;;20.60;74.20;;;;;;5034539;28;20331;-73
2021/05/11 11:27:32;;;;;;;1.38;0.70;;;20.80;72.30;;;;;;5034328;28;20045;-73
2021/05/11 11:30:09;;;;;;;3.58;0.65;;;20.60;71.00;;;;;;5015174;28;20053;-73
2021/05/11 11:32:36;;;;;;;1.20;0.57;;;20.30;70.60;;;;;;5015179;28;20321;-73
2021/05/11 11:35:05;;;;;;;1.35;0.50;;;20.30;70.00;;;;;;4976122;28;20433;-74
2021/05/11 11:37:31;;;;;;;2.90;0.82;;;20.40;70.70;;;;;;4976263;28;20035;-74
2021/05/11 11:40:00;;;;;;;1.58;0.50;;;20.60;70.40;;;;;;4976030;28;20066;-74
2021/05/11 11:42:39;;;;;;;1.48;0.57;;;20.80;70.30;;;;;;4976108;28;20047;-74
2021/05/11 11:45:09;;;;;;;1.40;0.50;;;21.00;68.10;;;;;;4975757;28;20051;-75
2021/05/11 11:47:41;;;;;;;1.70;0.73;;;21.30;69.80;;;;;;4976227;28;20051;-75
2021/05/11 11:50:10;;;;;;;1.65;0.80;;;21.00;67.70;;;;;;4976411;28;20054;-73
2021/05/11 11:52:44;;;;;;;3.97;0.70;;;20.90;67.50;;;;;;4975884;28;20060;-74
2021/05/11 11:55:34;;;;;;;1.60;0.70;;;20.90;68.90;;;;;;4975488;28;20077;-74
2021/05/11 11:58:00;;;;;;;8.75;0.93;;;20.60;68.80;;;;;;4976208;28;20050;-73
2021/05/11 12:00:32;;;;;;;3.55;1.00;;;20.60;69.10;;;;;;4975835;28;20062;-74
2021/05/11 12:03:10;;;;;;;2.78;0.82;;;20.60;68.50;;;;;;4976108;28;20050;-74
2021/05/11 12:05:52;;;;;;;1.55;0.88;;;20.60;69.90;;;;;;4975348;28;20047;-73
2021/05/11 12:08:29;;;;;;;4.00;0.88;;;20.60;68.50;;;;;;4975461;28;20046;-75
2021/05/11 12:10:56;;;;;;;2.92;0.90;;;20.50;68.50;;;;;;4975844;28;20047;-74
2021/05/11 12:13:30;;;;;;;3.58;0.70;;;20.30;68.80;;;;;;4975715;28;20414;-74
2021/05/11 12:16:20;;;;;;;2.58;0.70;;;20.40;68.60;;;;;;4974442;28;20046;-75
2021/05/11 12:19:09;;;;;;;1.42;0.73;;;20.10;68.40;;;;;;4978098;28;20042;-75
2021/05/11 12:21:49;;;;;;;4.55;0.75;;;20.00;70.00;;;;;;4973454;28;20065;-75
2021/05/11 12:24:15;;;;;;;4.15;0.70;;;20.20;69.40;;;;;;4975176;28;20058;-76
2021/05/11 12:26:42;;;;;;;2.40;0.85;;;20.10;69.80;;;;;;4974767;28;20047;-75
2021/05/11 12:29:10;;;;;;;2.47;0.98;;;20.20;69.90;;;;;;4975624;28;20038;-75
2021/05/11 12:31:39;;;;;;;1.05;0.52;;;20.30;69.00;;;;;;4975025;28;20062;-76
2021/05/11 12:34:07;;;;;;;3.25;0.68;;;20.30;68.70;;;;;;4991557;28;20054;-76
2021/05/11 12:36:40;;;;;;;1.95;0.77;;;20.40;68.60;;;;;;4994598;28;20058;-74
2021/05/11 12:42:24;;;;;;;1.23;0.65;;;20.40;69.70;;;;;;4996705;28;20061;-74
2021/05/11 12:45:06;;;;;;;1.60;0.70;;;20.30;68.30;;;;;;4998548;28;20050;-74
2021/05/11 12:47:47;;;;;;;1.02;0.50;;;20.20;69.50;;;;;;4998826;28;20059;-74
2021/05/11 12:50:22;;;;;;;2.47;0.85;;;20.20;69.60;;;;;;4998592;28;20053;-75
2021/05/11 12:52:50;;;;;;;1.17;0.68;;;19.90;69.30;;;;;;4998453;28;20743;-75
2021/05/11 13:01:33;;;;;;;1.58;0.70;;;19.50;71.10;;;;;;4998390;28;20038;-75
2021/05/11 13:25:54;;;;;;;1.73;0.70;;;19.20;71.10;;;;;;4934962;29;20051;-73
2021/05/11 13:33:34;;;;;;;3.88;1.25;;;19.10;71.20;;;;;;4937751;29;20467;-76
2021/05/11 13:36:01;;;;;;;3.30;1.48;;;19.10;71.60;;;;;;4937973;29;20067;-75
2021/05/11 13:38:27;;;;;;;3.25;1.17;;;19.00;71.30;;;;;;4938155;29;20051;-75
2021/05/11 13:40:56;;;;;;;3.10;1.23;;;18.90;71.60;;;;;;4942246;29;20051;-75
2021/05/11 13:43:22;;;;;;;1.98;0.90;;;19.10;71.60;;;;;;4937672;29;20058;-75
2021/05/11 13:45:48;;;;;;;2.97;0.73;;;19.00;72.20;;;;;;4936614;29;20055;-75
2021/05/11 13:51:14;;;;;;;2.55;0.70;;;18.80;71.50;;;;;;4994163;28;20054;-75
2021/05/11 13:53:43;;;;;;;3.92;1.15;;;18.60;72.60;;;;;;4995556;28;20046;-76
2021/05/11 13:56:33;;;;;;;8.25;1.90;;;18.40;73.10;;;;;;4994733;28;20065;-74
2021/05/11 14:04:30;;;;;;;2.03;1.05;;;17.90;75.60;;;;;;4994540;28;20128;-75
2021/05/11 14:06:56;;;;;;;3.33;1.50;;;17.80;76.50;;;;;;4994363;28;20054;-75
2021/05/11 14:09:23;;;;;;;2.67;1.20;;;17.60;77.40;;;;;;4994847;28;20046;-74
2021/05/11 14:11:49;;;;;;;1.60;0.73;;;17.40;77.40;;;;;;5012204;28;20126;-76
2021/05/11 14:14:16;;;;;;;2.47;1.00;;;17.20;77.60;;;;;;5014596;28;20065;-74
2021/05/11 14:16:45;;;;;;;3.22;1.15;;;17.20;77.80;;;;;;5014803;28;20476;-75
2021/05/11 14:19:12;;;;;;;4.25;1.02;;;17.00;78.40;;;;;;5014408;28;20134;-74
2021/05/11 14:21:40;;;;;;;2.70;1.10;;;16.90;78.50;;;;;;5014546;28;20057;-75
2021/05/11 14:24:07;;;;;;;2.35;1.02;;;16.90;78.90;;;;;;4998169;28;20054;-74
2021/05/11 14:26:33;;;;;;;1.75;0.63;;;16.90;79.00;;;;;;5014099;28;20057;-75
2021/05/11 14:29:00;;;;;;;1.17;0.65;;;16.70;79.50;;;;;;5016728;28;20058;-74
2021/05/11 14:31:27;;;;;;;2.15;0.70;;;16.70;79.60;;;;;;5016376;28;20053;-75
2021/05/11 14:33:54;;;;;;;2.15;0.98;;;16.50;79.70;;;;;;5016405;28;20054;-74
2021/05/11 14:36:20;;;;;;;1.30;0.60;;;16.70;80.40;;;;;;5014410;28;20061;-75
2021/05/11 14:38:46;;;;;;;2.60;0.80;;;16.70;80.50;;;;;;5016402;28;20061;-75
2021/05/11 14:41:13;;;;;;;1.23;0.73;;;16.60;80.70;;;;;;5015745;28;20050;-75
2021/05/11 14:43:41;;;;;;;4.63;0.90;;;16.70;81.00;;;;;;5015949;28;20364;-75
2021/05/11 14:46:09;;;;;;;1.55;0.60;;;16.60;80.60;;;;;;5015633;28;20436;-74
2021/05/11 14:48:36;;;;;;;0.90;0.40;;;16.70;80.20;;;;;;5016571;28;20046;-76
2021/05/11 14:51:04;;;;;;;2.03;0.63;;;16.70;80.40;;;;;;5016234;28;20053;-74
2021/05/11 14:53:31;;;;;;;3.85;0.95;;;16.80;80.90;;;;;;5015822;28;20428;-74
2021/05/11 14:55:58;;;;;;;2.40;0.80;;;16.80;80.80;;;;;;5015736;28;20057;-74
2021/05/11 14:58:24;;;;;;;4.85;1.20;;;16.70;80.90;;;;;;5016189;28;20677;-73
2021/05/11 15:00:51;;;;;;;1.42;0.40;;;16.70;80.80;;;;;;5015785;28;20034;-75
2021/05/11 15:03:17;;;;;;;1.88;0.40;;;16.70;81.00;;;;;;5015724;28;20053;-75
2021/05/11 15:05:43;;;;;;;2.22;0.52;;;17.00;80.10;;;;;;5015395;28;20057;-74
2021/05/11 15:08:10;;;;;;;2.60;0.50;;;17.00;79.70;;;;;;5015434;28;20052;-74
2021/05/11 15:10:36;;;;;;;0.88;0.40;;;17.40;79.50;;;;;;5015216;28;20336;-74
2021/05/11 15:13:03;;;;;;;0.60;0.30;;;17.30;78.80;;;;;;5015522;28;20065;-74
2021/05/11 15:15:30;;;;;;;1.23;0.50;;;17.10;78.90;;;;;;5015830;28;20325;-74
2021/05/11 15:17:58;;;;;;;1.50;0.47;;;17.10;79.50;;;;;;5015275;28;20449;-74
2021/05/11 15:20:25;;;;;;;1.52;0.40;;;17.00;79.50;;;;;;5015824;28;20053;-75
2021/05/11 15:22:52;;;;;;;2.33;0.30;;;16.90;79.70;;;;;;5015223;28;20053;-74
2021/05/11 15:25:20;;;;;;;0.65;0.30;;;16.90;80.00;;;;;;5014898;28;20060;-74
2021/05/11 15:27:46;;;;;;;1.65;0.52;;;16.80;80.30;;;;;;5014746;28;20049;-74
2021/05/11 15:30:13;;;;;;;1.17;0.50;;;16.70;80.40;;;;;;5019743;28;20046;-74
2021/05/11 15:32:49;;;;;;;1.75;0.50;;;16.70;81.10;;;;;;5004976;28;20054;-75
2021/05/11 15:35:17;;;;;;;2.65;0.52;;;16.60;81.30;;;;;;4995566;28;20057;-74
2021/05/11 15:37:47;;;;;;;1.30;0.60;;;16.60;81.40;;;;;;4995694;28;20448;-75
2021/05/11 15:40:15;;;;;;;0.88;0.60;;;16.50;81.70;;;;;;4995617;28;20049;-75
2021/05/11 15:42:45;;;;;;;2.17;0.77;;;16.50;82.30;;;;;;4995404;28;20448;-73
2021/05/11 15:45:13;;;;;;;3.28;0.90;;;16.40;82.50;;;;;;4995961;28;20112;-74
2021/05/11 15:47:52;;;;;;;2.03;1.00;;;16.30;82.90;;;;;;4995690;28;20065;-74
2021/05/11 15:50:25;;;;;;;1.27;0.80;;;16.30;83.60;;;;;;4995501;28;20058;-74
2021/05/11 15:52:56;;;;;;;2.08;0.90;;;16.10;83.60;;;;;;4995349;28;20452;-74
2021/05/11 15:55:23;;;;;;;5.43;0.93;;;16.10;83.50;;;;;;4978503;28;20038;-75
2021/05/11 15:57:51;;;;;;;2.38;1.00;;;15.90;84.30;;;;;;4995369;28;20058;-74
2021/05/11 16:00:24;;;;;;;1.98;0.70;;;15.90;85.00;;;;;;4995787;28;20053;-74
2021/05/11 16:02:50;;;;;;;2.03;0.80;;;15.90;85.30;;;;;;4999347;28;20058;-74
2021/05/11 16:05:19;;;;;;;2.10;0.70;;;15.80;84.90;;;;;;4998415;28;20046;-74
2021/05/11 16:07:45;;;;;;;2.67;0.80;;;15.80;84.30;;;;;;4995105;28;20057;-74
2021/05/11 16:10:13;;;;;;;2.45;0.85;;;15.80;83.90;;;;;;4994854;28;20058;-74
2021/05/11 16:12:39;;;;;;;4.57;1.00;;;15.60;83.80;;;;;;4994554;28;20057;-74
2021/05/11 16:15:11;;;;;;;2.85;0.90;;;15.50;84.10;;;;;;4995037;28;20346;-75
2021/05/11 16:17:38;;;;;;;3.05;1.15;;;15.50;84.00;;;;;;4994624;28;20054;-76
2021/05/11 16:20:06;;;;;;;5.32;1.10;;;15.50;84.80;;;;;;4995219;28;20053;-74
2021/05/11 16:22:34;;;;;;;4.40;1.75;;;15.50;84.80;;;;;;4995048;28;20062;-75
2021/05/11 16:25:00;;;;;;;7.03;1.58;;;15.50;84.80;;;;;;4995064;28;20042;-74
2021/05/11 16:27:27;;;;;;;3.05;1.13;;;15.60;84.10;;;;;;4994449;28;20065;-74
2021/05/11 16:29:54;;;;;;;4.82;1.65;;;15.70;84.20;;;;;;4994923;28;20049;-75
2021/05/11 16:32:20;;;;;;;3.53;1.45;;;15.70;84.60;;;;;;4994652;28;20054;-75
2021/05/11 16:34:46;;;;;;;6.55;1.13;;;15.70;84.50;;;;;;4994574;28;20065;-75
2021/05/11 16:37:12;;;;;;;5.57;1.30;;;15.70;84.20;;;;;;5006864;28;20042;-75
2021/05/11 16:39:39;;;;;;;4.07;1.42;;;15.70;84.70;;;;;;5013780;28;20070;-75
2021/05/11 16:42:06;;;;;;;3.80;1.20;;;15.70;84.30;;;;;;4994826;28;79289;-75
2021/05/11 16:44:34;;;;;;;4.20;1.35;;;15.60;84.90;;;;;;5011288;28;20049;-75
2021/05/11 16:47:00;;;;;;;3.90;1.08;;;15.60;85.10;;;;;;5015148;28;20053;-74
2021/05/11 16:49:26;;;;;;;4.38;1.48;;;15.50;85.10;;;;;;5014381;28;20053;-74
2021/05/11 16:51:53;;;;;;;3.55;1.13;;;15.30;85.10;;;;;;5014581;28;20065;-74
2021/05/11 16:54:19;;;;;;;4.53;1.30;;;15.30;85.50;;;;;;5014535;28;20042;-74
2021/05/11 16:56:45;;;;;;;5.05;1.27;;;15.10;85.40;;;;;;5014525;28;20049;-74
2021/05/11 16:59:14;;;;;;;9.65;1.45;;;15.20;85.50;;;;;;5013448;28;20325;-75
2021/05/11 17:01:40;;;;;;;5.68;1.67;;;15.10;85.70;;;;;;5013106;28;20069;-75
2021/05/11 17:04:07;;;;;;;6.03;1.45;;;15.10;85.40;;;;;;5012789;28;20329;-75
2021/05/11 17:06:34;;;;;;;4.40;1.35;;;15.10;85.40;;;;;;5013417;28;20057;-75
2021/05/11 17:09:02;;;;;;;4.85;1.70;;;15.00;85.50;;;;;;5013317;28;20455;-75
2021/05/11 17:11:31;;;;;;;7.40;1.60;;;15.00;85.30;;;;;;5013875;28;20049;-75
2021/05/11 17:13:58;;;;;;;3.45;1.60;;;14.90;85.50;;;;;;5013128;28;20050;-75
2021/05/11 17:16:25;;;;;;;6.35;1.45;;;14.90;85.70;;;;;;5013474;28;20051;-75
2021/05/11 17:18:51;;;;;;;4.95;1.95;;;14.80;85.30;;;;;;5012749;28;20056;-75